Time;durP1;ratioP1;P1;durP2;ratioP2;P2;SDS_P1;SDS_P2;PMS_P1;PMS_P2;Temp;Humidity;BMP_temperature;BMP_pressure;BME280_temperature;BME280_humidity;BME280_pressure;Samples;Min_cycle;Max_cycle;Signal;HPM_P1;HPM_P2
2021/03/29 00:01:56;;;;;;;47.33;23.45;;;;;;;6.25;88.12;98896.88;4998216;28;20128;-82
2021/03/29 00:04:21;;;;;;;43.00;22.48;;;;;;;6.25;88.19;98886.25;4997992;28;20044;-82
2021/03/29 00:06:47;;;;;;;35.47;19.40;;;;;;;6.27;87.69;98889.78;4998015;28;20033;-81
2021/03/29 00:09:13;;;;;;;35.88;17.13;;;;;;;6.37;86.87;98892.16;5014278;28;20052;-82
2021/03/29 00:11:39;;;;;;;28.30;14.13;;;;;;;6.28;85.83;98884.41;4998056;28;20481;-82
2021/03/29 00:14:06;;;;;;;31.92;14.68;;;;;;;6.24;85.72;98887.19;4997870;28;20040;-81
2021/03/29 00:16:32;;;;;;;31.30;15.45;;;;;;;6.21;85.25;98887.25;4997981;28;20516;-82
2021/03/29 00:18:58;;;;;;;29.70;15.25;;;;;;;6.08;86.09;98877.81;4997635;28;20461;-82
2021/03/29 00:21:24;;;;;;;29.58;15.35;;;;;;;6.02;87.48;98883.25;4997608;28;20037;-82
2021/03/29 00:23:49;;;;;;;27.83;14.15;;;;;;;5.92;87.07;98888.78;5014319;28;20025;-82
2021/03/29 00:26:15;;;;;;;32.15;15.55;;;;;;;5.73;88.58;98874.13;4997493;28;20057;-82
2021/03/29 00:28:41;;;;;;;41.22;20.63;;;;;;;5.51;90.66;98880.78;4997746;28;20116;-82
2021/03/29 00:31:09;;;;;;;42.47;22.42;;;;;;;5.49;92.16;98885.25;4997522;28;20030;-82
2021/03/29 00:33:36;;;;;;;38.60;22.27;;;;;;;5.39;92.85;98881.03;5014352;28;20480;-82
2021/03/29 00:36:02;;;;;;;35.13;19.42;;;;;;;5.19;92.93;98867.28;4997349;28;20124;-82
2021/03/29 00:38:28;;;;;;;35.30;19.90;;;;;;;5.20;94.18;98887.63;5013866;28;20107;-81
2021/03/29 00:40:57;;;;;;;43.25;21.48;;;;;;;5.18;94.78;98892.06;4997481;28;20033;-81
2021/03/29 00:43:26;;;;;;;43.78;20.92;;;;;;;5.04;94.64;98891.44;4997202;28;20029;-82
2021/03/29 00:45:54;;;;;;;44.28;22.55;;;;;;;4.99;95.41;98880.03;4997507;28;20029;-81
2021/03/29 00:48:21;;;;;;;47.67;24.75;;;;;;;5.01;96.50;98888.84;4996651;28;20040;-82
2021/03/29 00:51:07;;;;;;;55.13;27.38;;;;;;;4.97;96.58;98893.34;4997369;28;20017;-82
2021/03/29 00:53:34;;;;;;;68.68;33.83;;;;;;;4.88;96.95;98897.03;4997121;28;20069;-81
2021/03/29 00:56:00;;;;;;;66.63;34.03;;;;;;;4.86;97.55;98890.84;4997342;28;20041;-81
2021/03/29 00:58:26;;;;;;;74.80;35.47;;;;;;;4.87;98.35;98902.34;5013511;28;20029;-82
2021/03/29 01:01:01;;;;;;;68.22;33.90;;;;;;;4.87;98.35;98894.38;4997094;28;20036;-81
2021/03/29 01:03:31;;;;;;;56.33;29.75;;;;;;;4.89;99.16;98893.47;4997347;28;20036;-81
2021/03/29 01:06:04;;;;;;;59.30;30.55;;;;;;;4.83;98.62;98898.88;4997090;28;20386;-82
2021/03/29 01:08:30;;;;;;;54.50;25.27;;;;;;;4.65;98.64;98880.63;4989477;28;20434;-82
2021/03/29 01:10:57;;;;;;;56.60;27.58;;;;;;;4.69;99.27;98892.94;4997329;28;20025;-82
2021/03/29 01:13:23;;;;;;;62.83;28.63;;;;;;;4.66;99.06;98885.03;4997138;28;20032;-82
2021/03/29 01:15:49;;;;;;;44.25;22.48;;;;;;;4.66;98.62;98898.28;5013504;28;20030;-82
2021/03/29 01:18:17;;;;;;;32.05;17.88;;;;;;;4.62;98.95;98895.69;4997045;28;20447;-81
2021/03/29 01:21:01;;;;;;;36.40;20.35;;;;;;;4.51;99.31;98897.66;4997061;28;20044;-81
2021/03/29 01:23:27;;;;;;;36.05;18.75;;;;;;;4.45;99.91;98888.06;4997153;28;20021;-82
2021/03/29 01:26:33;;;;;;;42.03;18.15;;;;;;;4.48;99.56;98893.31;4997255;28;20075;-82
2021/03/29 01:28:59;;;;;;;31.05;16.25;;;;;;;4.39;99.92;98888.16;4977750;28;20038;-81
2021/03/29 01:31:24;;;;;;;41.25;20.23;;;;;;;4.36;100.00;98890.84;4988043;28;20039;-81
2021/03/29 01:33:51;;;;;;;40.35;18.80;;;;;;;4.32;100.00;98894.44;4997069;28;20112;-82
2021/03/29 01:36:18;;;;;;;39.42;20.83;;;;;;;4.23;100.00;98891.94;4996815;28;20051;-81
2021/03/29 01:38:45;;;;;;;40.97;21.27;;;;;;;4.26;100.00;98902.47;5013491;28;20026;-81
2021/03/29 01:41:10;;;;;;;45.80;20.90;;;;;;;4.23;100.00;98889.28;4996823;28;20503;-82
2021/03/29 01:43:36;;;;;;;58.60;23.75;;;;;;;4.07;100.00;98887.75;4996872;28;20060;-82
2021/03/29 01:46:02;;;;;;;61.10;23.45;;;;;;;4.12;100.00;98896.53;5013363;28;20033;-81
2021/03/29 01:48:28;;;;;;;54.53;21.17;;;;;;;4.17;100.00;98902.63;4996831;28;20443;-82
2021/03/29 01:50:54;;;;;;;54.55;23.48;;;;;;;4.12;100.00;98897.38;4996759;28;20053;-81
2021/03/29 01:53:23;;;;;;;57.72;23.63;;;;;;;4.03;100.00;98899.31;5013029;28;20402;-79
2021/03/29 01:55:49;;;;;;;55.67;22.35;;;;;;;3.95;100.00;98886.16;5014393;28;20021;-81
2021/03/29 01:58:17;;;;;;;60.58;21.80;;;;;;;3.95;100.00;98887.94;4997032;28;20028;-82
2021/03/29 02:00:47;;;;;;;47.20;20.15;;;;;;;3.83;100.00;98897.81;5000401;28;20021;-82
2021/03/29 02:03:12;;;;;;;42.55;18.77;;;;;;;3.74;100.00;98890.00;5016633;28;20021;-82
2021/03/29 02:05:39;;;;;;;41.80;17.70;;;;;;;3.71;100.00;98899.72;5000441;28;20079;-82
2021/03/29 02:08:05;;;;;;;45.60;17.67;;;;;;;3.65;100.00;98892.75;5000364;28;20476;-82
2021/03/29 02:10:34;;;;;;;33.40;15.80;;;;;;;3.53;100.00;98892.91;4999985;28;20060;-83
2021/03/29 02:13:04;;;;;;;24.85;13.75;;;;;;;3.43;100.00;98883.34;5000252;28;20030;-81
2021/03/29 02:15:30;;;;;;;25.45;13.98;;;;;;;3.46;100.00;98896.53;5000130;28;20033;-81
2021/03/29 02:17:57;;;;;;;26.30;14.07;;;;;;;3.39;100.00;98886.91;4996837;28;20029;-81
2021/03/29 02:20:30;;;;;;;32.40;15.02;;;;;;;3.40;100.00;98886.00;4999229;28;20029;-81
2021/03/29 02:22:56;;;;;;;37.60;18.80;;;;;;;3.35;100.00;98885.22;5000163;28;20036;-81
2021/03/29 02:25:24;;;;;;;41.45;19.45;;;;;;;3.44;100.00;98893.03;4999787;28;20029;-82
2021/03/29 02:27:50;;;;;;;35.42;16.25;;;;;;;3.46;100.00;98901.81;5000261;28;20504;-83
2021/03/29 02:30:20;;;;;;;31.38;16.08;;;;;;;3.49;100.00;98901.78;4999878;28;20126;-82
2021/03/29 02:32:47;;;;;;;34.40;16.70;;;;;;;3.54;100.00;98899.06;5007507;28;20030;-81
2021/03/29 02:35:14;;;;;;;26.42;15.07;;;;;;;3.57;100.00;98891.13;5014087;28;20032;-82
2021/03/29 02:37:44;;;;;;;31.13;14.57;;;;;;;3.54;100.00;98877.88;4999684;28;20481;-83
2021/03/29 02:40:10;;;;;;;31.45;15.38;;;;;;;3.63;100.00;98899.81;4999921;28;20417;-82
2021/03/29 02:42:36;;;;;;;27.17;15.88;;;;;;;3.63;100.00;98889.22;4999473;28;20044;-82
2021/03/29 02:45:11;;;;;;;30.65;16.73;;;;;;;3.67;99.81;98896.25;4999513;28;20036;-82
2021/03/29 02:47:41;;;;;;;44.67;20.23;;;;;;;3.62;99.04;98892.78;4999422;28;20029;-82
2021/03/29 02:50:10;;;;;;;37.05;20.13;;;;;;;3.61;99.02;98898.09;4999484;28;20466;-82
2021/03/29 02:52:36;;;;;;;36.92;18.88;;;;;;;3.56;99.42;98892.88;4999091;28;20053;-82
2021/03/29 02:55:06;;;;;;;34.40;18.10;;;;;;;3.50;99.45;98887.66;4999325;28;20029;-82
2021/03/29 02:57:36;;;;;;;39.92;18.77;;;;;;;3.51;99.00;98889.38;4999287;28;20087;-82
2021/03/29 03:00:07;;;;;;;37.08;20.17;;;;;;;3.49;99.03;98888.53;4999280;28;20100;-82
2021/03/29 03:02:34;;;;;;;39.97;18.65;;;;;;;3.50;99.38;98892.94;5015561;28;20044;-83
2021/03/29 03:05:00;;;;;;;44.78;20.15;;;;;;;3.50;99.53;98892.94;4999295;28;20043;-83
2021/03/29 03:07:26;;;;;;;32.97;17.27;;;;;;;3.57;98.63;98899.91;4999206;28;20079;-83
2021/03/29 03:09:52;;;;;;;35.78;16.63;;;;;;;3.53;97.63;98898.19;4998492;28;20071;-84
2021/03/29 03:12:17;;;;;;;45.15;19.35;;;;;;;3.48;98.52;98897.38;4998896;28;20049;-82
2021/03/29 03:14:43;;;;;;;36.25;17.63;;;;;;;3.34;99.41;98893.13;5015198;28;20069;-82
2021/03/29 03:17:08;;;;;;;39.15;17.00;;;;;;;3.28;99.52;98886.16;4998988;28;20018;-82
2021/03/29 03:19:34;;;;;;;37.17;18.17;;;;;;;3.25;100.00;98883.56;4998790;28;20385;-80
2021/03/29 03:22:00;;;;;;;35.15;17.08;;;;;;;3.25;100.00;98891.47;4998933;28;20382;-82
2021/03/29 03:24:35;;;;;;;31.35;16.70;;;;;;;3.15;100.00;98903.03;5014875;28;20053;-81
2021/03/29 03:27:08;;;;;;;41.53;22.00;;;;;;;3.09;100.00;98874.91;4998609;28;20033;-81
2021/03/29 03:29:40;;;;;;;47.53;20.42;;;;;;;3.20;100.00;98910.03;4998543;28;20065;-81
2021/03/29 03:32:14;;;;;;;71.28;27.70;;;;;;;3.13;100.00;98902.19;4998839;28;20017;-81
2021/03/29 03:34:40;;;;;;;47.28;19.77;;;;;;;3.19;100.00;98897.72;4998484;28;20065;-80
2021/03/29 03:37:07;;;;;;;41.10;20.75;;;;;;;3.16;100.00;98903.03;4998707;28;20037;-81
2021/03/29 03:39:33;;;;;;;57.08;26.77;;;;;;;3.17;100.00;98894.19;4998562;28;20116;-81
2021/03/29 03:41:59;;;;;;;50.38;24.63;;;;;;;3.28;100.00;98892.34;4998912;28;20586;-81
2021/03/29 03:44:26;;;;;;;53.03;25.70;;;;;;;3.51;100.00;98899.09;5014952;28;20033;-81
2021/03/29 03:46:52;;;;;;;50.80;24.83;;;;;;;3.63;100.00;98897.16;4998427;28;20470;-81
2021/03/29 03:49:20;;;;;;;48.00;23.83;;;;;;;3.75;100.00;98890.88;4998398;28;20029;-81
2021/03/29 03:51:47;;;;;;;53.85;25.85;;;;;;;3.84;98.98;98901.31;4998106;28;20093;-81
2021/03/29 03:54:13;;;;;;;50.33;25.35;;;;;;;3.90;99.41;98903.00;4998401;28;20033;-81
2021/03/29 03:56:39;;;;;;;62.92;27.02;;;;;;;4.01;99.52;98906.38;4998146;28;20056;-81
2021/03/29 03:59:06;;;;;;;64.28;30.77;;;;;;;3.90;98.80;98887.13;4998373;28;20471;-81
2021/03/29 04:01:48;;;;;;;73.22;32.88;;;;;;;3.87;98.88;98897.75;4997989;28;20124;-81
2021/03/29 04:04:14;;;;;;;74.53;35.05;;;;;;;3.86;99.54;98885.41;5014572;28;20040;-81
2021/03/29 04:06:39;;;;;;;72.45;33.92;;;;;;;3.94;99.06;98904.72;4998315;28;20498;-81
2021/03/29 04:09:05;;;;;;;69.25;35.28;;;;;;;3.94;98.97;98888.84;4997917;28;20028;-81
2021/03/29 04:11:31;;;;;;;67.28;30.88;;;;;;;3.95;99.64;98885.28;4998088;28;20033;-81
2021/03/29 04:13:56;;;;;;;64.15;30.55;;;;;;;4.02;99.45;98897.53;4986764;28;20117;-81
2021/03/29 04:16:22;;;;;;;43.72;21.90;;;;;;;3.97;98.70;98888.81;5009653;28;20029;-81
2021/03/29 04:18:47;;;;;;;46.53;22.60;;;;;;;4.01;98.00;98898.44;4997591;28;20417;-81
2021/03/29 04:21:13;;;;;;;58.22;29.13;;;;;;;4.00;98.56;98899.34;4997660;28;20113;-81
2021/03/29 04:23:38;;;;;;;55.17;27.60;;;;;;;4.10;98.14;98900.94;4996832;28;20473;-81
2021/03/29 04:26:05;;;;;;;64.53;30.88;;;;;;;4.16;97.27;98901.72;4998022;28;20026;-82
2021/03/29 04:28:30;;;;;;;72.93;39.10;;;;;;;4.17;97.99;98903.50;4997891;28;20112;-81
2021/03/29 04:30:56;;;;;;;66.03;30.30;;;;;;;4.15;96.87;98904.41;4997533;28;20112;-80
2021/03/29 04:33:22;;;;;;;63.80;30.42;;;;;;;4.21;97.66;98896.38;4997516;28;20025;-84
2021/03/29 04:35:48;;;;;;;61.33;30.60;;;;;;;4.25;96.84;98911.31;4997626;28;20029;-82
2021/03/29 04:38:14;;;;;;;52.70;28.02;;;;;;;4.37;96.20;98905.81;4997767;28;20029;-82
2021/03/29 04:40:39;;;;;;;54.63;28.52;;;;;;;4.43;96.13;98895.13;4997472;28;20032;-82
2021/03/29 04:43:05;;;;;;;49.60;26.45;;;;;;;4.44;95.94;98912.78;4997592;28;20405;-82
2021/03/29 04:45:30;;;;;;;53.38;27.52;;;;;;;4.58;95.27;98916.09;4997335;28;20034;-82
2021/03/29 04:47:56;;;;;;;57.65;28.58;;;;;;;4.56;94.83;98907.28;4997139;28;20055;-82
2021/03/29 04:50:23;;;;;;;65.07;29.65;;;;;;;4.59;93.74;98912.53;4987774;28;20438;-82
2021/03/29 04:52:49;;;;;;;61.25;29.63;;;;;;;4.64;93.31;98928.38;5011983;28;20058;-84
2021/03/29 04:55:16;;;;;;;70.35;30.40;;;;;;;4.66;93.81;98924.78;4995875;28;20079;-82
2021/03/29 04:57:41;;;;;;;73.60;33.10;;;;;;;4.67;93.81;98910.66;4993111;28;20038;-82
2021/03/29 05:00:08;;;;;;;71.90;33.28;;;;;;;4.74;93.14;98920.22;4994434;28;20112;-83
2021/03/29 05:02:33;;;;;;;72.68;36.22;;;;;;;5.10;92.12;98907.25;4994540;28;20091;-82
2021/03/29 05:05:25;;;;;;;86.55;36.28;;;;;;;5.23;90.35;98922.03;4995435;28;20030;-84
2021/03/29 05:07:51;;;;;;;84.13;39.40;;;;;;;5.21;90.27;98923.81;4994832;28;20475;-82
2021/03/29 05:10:17;;;;;;;105.63;45.28;;;;;;;5.18;90.05;98921.22;5011129;28;20108;-83
2021/03/29 05:12:44;;;;;;;116.53;54.70;;;;;;;5.25;89.62;98910.50;4995797;28;20064;-81
2021/03/29 05:15:10;;;;;;;213.57;93.28;;;;;;;5.59;87.26;98917.78;4988373;28;20120;-82
2021/03/29 05:17:36;;;;;;;169.00;72.85;;;;;;;5.90;85.77;98913.63;4994527;28;20068;-82
2021/03/29 05:20:05;;;;;;;103.25;46.40;;;;;;;5.91;84.14;98905.63;5010961;28;20413;-83
2021/03/29 05:22:30;;;;;;;93.25;44.83;;;;;;;5.87;84.45;98911.03;4996174;28;20040;-78
2021/03/29 05:24:56;;;;;;;109.82;54.03;;;;;;;6.23;83.52;98914.66;4994339;28;20493;-78
2021/03/29 05:27:22;;;;;;;130.77;58.28;;;;;;;6.15;83.09;98912.19;5010787;28;20040;-81
2021/03/29 05:29:52;;;;;;;122.50;56.60;;;;;;;6.20;83.40;98912.94;4996165;28;20029;-87
2021/03/29 05:32:21;;;;;;;126.50;57.28;;;;;;;6.93;80.52;98914.72;4995334;28;20458;-77
2021/03/29 05:34:49;;;;;;;136.23;56.55;;;;;;;7.03;79.34;98932.19;4996636;28;20025;-79
2021/03/29 05:37:16;;;;;;;94.20;45.83;;;;;;;6.73;81.14;98934.75;4998601;28;20041;-79
2021/03/29 05:39:50;;;;;;;74.43;38.17;;;;;;;6.77;81.19;98931.94;5014546;28;20033;-78
2021/03/29 05:42:19;;;;;;;75.38;36.78;;;;;;;6.78;81.38;98936.38;4999245;28;20328;-76
2021/03/29 05:44:58;;;;;;;73.82;39.08;;;;;;;6.87;79.91;98921.97;4999399;28;20111;-77
2021/03/29 05:47:27;;;;;;;83.97;40.50;;;;;;;7.99;74.73;98940.19;5015958;28;20036;-78
2021/03/29 05:49:53;;;;;;;90.75;49.67;;;;;;;8.93;69.54;98935.44;4999353;28;20029;-78
2021/03/29 05:52:34;;;;;;;;;;;;;;;;;;;;;
2021/03/29 05:55:00;;;;;;;115.82;61.38;;;;;;;10.09;64.15;98942.91;5015960;28;20396;-78
2021/03/29 06:07:46;;;;;;;;;;;;;;;;;;;;;
2021/03/29 06:24:41;;;;;;;;;;;;;;;;;;;;;
2021/03/29 06:31:38;;;;;;;;;;;;;;;;;;;;;
2021/03/29 06:46:00;;;;;;;50.45;25.58;;;;;;;17.80;37.65;98932.94;4757131;30;20113;-84
2021/03/29 06:55:59;;;;;;;;;;;;;;;;;;;;;
2021/03/29 07:22:57;;;;;;;56.72;38.15;;;;;;;21.99;29.31;98945.50;4825247;29;20046;-81
2021/03/29 07:25:32;;;;;;;46.95;21.63;;;;;;;21.82;30.12;98916.06;4850001;29;20036;-80
2021/03/29 07:28:15;;;;;;;43.72;21.58;;;;;;;23.19;28.65;98919.22;4961993;28;20798;-83
2021/03/29 07:31:37;;;;;;;;;;;;;;;;;;;;;
2021/03/29 07:35:00;;;;;;;;;;;;;;;;;;;;;
2021/03/29 07:37:44;;;;;;;;;;;;;;;;;;;;;
2021/03/29 07:40:34;;;;;;;26.25;16.77;;;;;;;24.85;25.21;98942.66;4950420;28;20427;-82
2021/03/29 07:43:36;;;;;;;26.25;14.88;;;;;;;24.94;24.05;98876.03;4949920;28;20062;-81
2021/03/29 07:46:40;;;;;;;23.08;13.60;;;;;;;24.54;24.72;98870.00;5013059;28;20406;-82
2021/03/29 08:00:53;;;;;;;;;;;;;;;;;;;;;
2021/03/29 08:04:19;;;;;;;;;;;;;;;;;;;;;
2021/03/29 08:07:17;;;;;;;7.28;4.75;;;;;;;25.96;18.56;98891.16;4888427;29;20040;-83
2021/03/29 08:17:25;;;;;;;6.68;3.95;;;;;;;27.53;17.33;98894.47;4826828;29;20030;-82
2021/03/29 08:20:44;;;;;;;11.23;5.75;;;;;;;27.63;18.17;98900.66;4818218;29;20054;-82
2021/03/29 08:24:27;;;;;;;;;;;;;;;;;;;;;
2021/03/29 08:26:46;;;;;;;14.20;4.60;;;;;;;27.38;17.78;98848.34;4836766;29;20045;-83
2021/03/29 08:29:14;;;;;;;19.00;8.13;;;;;;;27.88;17.03;98831.72;4818020;29;20558;-79
2021/03/29 08:31:59;;;;;;;14.18;5.13;;;;;;;26.91;18.03;98880.16;5002923;28;20505;-78
2021/03/29 08:34:30;;;;;;;8.98;3.70;;;;;;;26.30;18.74;98878.38;5028869;28;20571;-79
2021/03/29 08:37:00;;;;;;;7.95;3.85;;;;;;;26.45;17.09;98869.59;4993558;28;20080;-79
2021/03/29 08:39:30;;;;;;;6.47;3.10;;;;;;;27.00;17.10;98870.03;4994917;28;20041;-79
2021/03/29 08:41:55;;;;;;;8.15;3.65;;;;;;;25.31;18.11;98852.16;4994641;28;20025;-82
2021/03/29 08:44:22;;;;;;;12.95;4.22;;;;;;;25.55;18.89;98869.88;4991757;28;20036;-80
2021/03/29 08:46:50;;;;;;;5.10;2.50;;;;;;;26.05;18.33;98868.25;5010579;28;20033;-79
2021/03/29 08:49:16;;;;;;;11.10;4.00;;;;;;;26.35;19.06;98870.56;5012269;28;20421;-80
2021/03/29 08:51:42;;;;;;;12.75;3.55;;;;;;;25.64;18.42;98869.78;5011399;28;20037;-81
2021/03/29 08:54:12;;;;;;;6.97;3.63;;;;;;;26.26;17.06;98871.53;5011246;28;20043;-79
2021/03/29 08:56:45;;;;;;;30.25;4.47;;;;;;;26.93;17.80;98873.47;4994526;28;20119;-81
2021/03/29 08:59:11;;;;;;;11.63;3.90;;;;;;;28.30;15.59;98867.31;5010835;28;20021;-79
2021/03/29 09:01:41;;;;;;;6.85;2.88;;;;;;;27.14;17.50;98867.50;5010797;28;20033;-81
2021/03/29 09:04:08;;;;;;;10.13;2.90;;;;;;;27.82;17.37;98872.81;4994404;28;20108;-79
2021/03/29 09:06:34;;;;;;;7.32;3.13;;;;;;;27.74;16.61;98867.34;5011561;28;20496;-79
2021/03/29 09:09:13;;;;;;;7.32;2.90;;;;;;;26.58;18.03;98854.38;4999907;28;20033;-79
2021/03/29 09:11:44;;;;;;;9.48;3.05;;;;;;;24.81;18.50;98870.03;5019785;28;20032;-78
2021/03/29 09:14:10;;;;;;;9.88;2.95;;;;;;;25.66;18.20;98862.25;5020094;28;20029;-79
2021/03/29 09:16:37;;;;;;;4.38;2.92;;;;;;;26.13;17.59;98871.03;5003635;28;20029;-79
2021/03/29 09:19:16;;;;;;;4.20;2.83;;;;;;;24.34;18.59;98862.84;5019948;28;20576;-79
2021/03/29 09:21:42;;;;;;;5.72;2.67;;;;;;;24.97;19.14;98864.75;5003494;28;20056;-79
2021/03/29 09:24:19;;;;;;;5.72;2.78;;;;;;;25.20;18.11;98855.09;4999717;28;20025;-79
2021/03/29 09:26:59;;;;;;;13.50;8.20;;;;;;;25.69;18.42;98852.84;5001122;28;20037;-79
2021/03/29 09:29:33;;;;;;;10.48;4.30;;;;;;;26.78;17.96;98855.00;5017541;28;20034;-78
2021/03/29 09:32:03;;;;;;;7.97;2.95;;;;;;;25.31;18.42;98857.63;5001431;28;20478;-80
2021/03/29 09:34:30;;;;;;;6.82;2.97;;;;;;;23.84;19.62;98852.13;5017743;28;20045;-79
2021/03/29 09:37:02;;;;;;;72.25;4.88;;;;;;;24.96;18.40;98862.16;5001171;28;20060;-79
2021/03/29 09:39:30;;;;;;;7.63;3.17;;;;;;;25.90;20.31;98858.88;5009431;28;20033;-80
2021/03/29 09:41:56;;;;;;;7.47;3.50;;;;;;;26.52;17.45;98859.69;5001018;28;20385;-80
2021/03/29 09:44:30;;;;;;;7.60;3.40;;;;;;;27.65;16.27;98843.59;5000776;28;20036;-80
2021/03/29 09:47:07;;;;;;;6.28;2.70;;;;;;;27.19;17.73;98837.66;5017127;28;20033;-79
2021/03/29 09:49:48;;;;;;;16.33;4.63;;;;;;;26.04;18.42;98832.75;5001591;28;20037;-80
2021/03/29 09:52:37;;;;;;;5.07;2.75;;;;;;;26.03;16.22;98831.88;5017119;28;20041;-81
2021/03/29 09:55:03;;;;;;;8.30;3.20;;;;;;;26.00;16.51;98818.47;5000684;28;20071;-78
2021/03/29 09:57:36;;;;;;;7.32;2.58;;;;;;;26.73;16.21;98821.69;5001095;28;20842;-79
2021/03/29 10:00:19;;;;;;;15.18;2.75;;;;;;;27.34;15.38;98821.38;5017303;28;20045;-79
2021/03/29 10:02:46;;;;;;;35.10;4.70;;;;;;;26.80;15.42;98814.50;5017044;28;20433;-79
2021/03/29 10:05:12;;;;;;;15.82;3.70;;;;;;;26.81;16.73;98806.13;5017047;28;20044;-80
2021/03/29 10:07:54;;;;;;;7.32;2.47;;;;;;;26.44;15.29;98801.97;5001373;28;20026;-80
2021/03/29 10:10:31;;;;;;;4.65;1.60;;;;;;;24.91;16.51;98794.19;5000326;28;20040;-81
2021/03/29 10:13:13;;;;;;;11.40;3.40;;;;;;;26.39;16.30;98799.72;5000927;28;20041;-80
2021/03/29 10:15:39;;;;;;;;;;;;;;;27.57;15.79;98816.06;5017676;28;20079;-80
2021/03/29 10:18:10;;;;;;;10.80;3.83;;;;;;;26.92;15.92;98796.69;5000664;28;20273;-80
2021/03/29 10:20:38;;;;;;;5.05;2.15;;;;;;;22.95;17.76;98787.72;5015684;28;20509;-81
2021/03/29 10:23:29;;;;;;;13.70;6.55;;;;;;;22.28;19.44;98787.53;4997860;28;20040;-83
2021/03/29 10:26:30;;;;;;;6.13;2.17;;;;;;;23.58;18.55;98801.84;4997665;28;20036;-81
2021/03/29 10:29:00;;;;;;;12.55;3.88;;;;;;;25.37;17.55;98779.41;4998574;28;20037;-82
2021/03/29 10:31:36;;;;;;;11.70;2.58;;;;;;;25.42;16.10;98730.47;5013808;28;20029;-80
2021/03/29 10:34:05;;;;;;;7.70;4.15;;;;;;;25.17;16.02;98729.38;4997419;28;20029;-78
2021/03/29 10:36:31;;;;;;;3.20;1.52;;;;;;;26.07;15.66;98772.06;4997206;28;20040;-80
2021/03/29 10:39:11;;;;;;;;;;;;;;;;;;;;;
2021/03/29 10:42:13;;;;;;;9.75;2.80;;;;;;;26.96;16.44;98773.38;5016475;28;20051;-80
2021/03/29 10:45:03;;;;;;;;;;;;;;;26.68;16.39;98766.38;4990223;28;20048;-83
2021/03/29 10:50:23;;;;;;;15.85;3.67;;;;;;;25.82;16.95;98699.75;4987318;28;20056;-80
2021/03/29 10:52:58;;;;;;;9.30;2.65;;;;;;;25.48;18.34;98765.44;4996731;28;20146;-80
2021/03/29 10:55:25;;;;;;;6.03;2.60;;;;;;;24.68;17.73;98754.53;5014208;28;20029;-84
2021/03/29 10:57:53;;;;;;;11.43;3.33;;;;;;;25.51;18.70;98770.66;5013576;28;20018;-80
2021/03/29 11:00:19;;;;;;;7.05;2.10;;;;;;;25.31;20.17;98748.03;4996554;28;20036;-80
2021/03/29 11:02:46;;;;;;;6.22;2.72;;;;;;;24.88;20.46;98745.22;5012570;28;20555;-80
2021/03/29 11:05:12;;;;;;;5.82;2.10;;;;;;;24.43;24.31;98749.78;4996474;28;20038;-77
2021/03/29 11:07:38;;;;;;;5.38;2.00;;;;;;;25.50;19.16;98741.50;4995371;28;20506;-80
2021/03/29 11:10:04;;;;;;;13.45;3.55;;;;;;;26.00;19.09;98741.69;5012455;28;20091;-79
2021/03/29 11:12:29;;;;;;;6.78;2.20;;;;;;;27.01;22.20;98732.50;4996170;28;20481;-80
2021/03/29 11:14:55;;;;;;;8.32;2.05;;;;;;;28.02;18.72;98744.88;4995735;28;20029;-79
2021/03/29 11:17:22;;;;;;;6.32;2.33;;;;;;;27.88;17.76;98723.56;4995630;28;20043;-79
2021/03/29 11:19:47;;;;;;;6.00;1.67;;;;;;;28.90;17.99;98732.69;4995802;28;20069;-79
2021/03/29 11:22:13;;;;;;;5.72;2.15;;;;;;;29.08;15.31;98720.50;5012244;28;20063;-80
2021/03/29 11:24:38;;;;;;;11.75;3.00;;;;;;;29.69;16.09;98722.25;5029805;28;20478;-80
2021/03/29 11:27:04;;;;;;;8.30;2.63;;;;;;;29.24;17.73;98713.00;4995940;28;20030;-78
2021/03/29 11:29:29;;;;;;;7.10;2.75;;;;;;;30.71;14.45;98714.03;4992304;28;20069;-78
2021/03/29 11:31:55;;;;;;;10.15;2.40;;;;;;;30.95;13.13;98704.56;4991889;28;20057;-78
2021/03/29 11:34:21;;;;;;;5.55;1.85;;;;;;;29.62;12.76;98671.66;4995389;28;20025;-78
2021/03/29 11:36:46;;;;;;;6.82;1.92;;;;;;;26.33;14.72;98660.44;5011883;28;20025;-78
2021/03/29 11:39:12;;;;;;;5.63;2.88;;;;;;;27.96;15.79;98679.56;4995439;28;20485;-78
2021/03/29 11:41:39;;;;;;;18.75;3.42;;;;;;;29.70;15.92;98685.34;4995155;28;20051;-78
2021/03/29 11:44:05;;;;;;;8.27;2.28;;;;;;;29.23;14.89;98666.28;5011966;28;20060;-79
2021/03/29 11:46:31;;;;;;;8.02;2.13;;;;;;;29.44;14.75;98648.00;4995949;28;20041;-78
2021/03/29 11:48:57;;;;;;;13.07;2.30;;;;;;;30.25;14.92;98658.16;4995444;28;20025;-79
2021/03/29 11:51:22;;;;;;;7.43;1.73;;;;;;;28.96;14.59;98657.53;5011905;28;20032;-79
2021/03/29 11:53:48;;;;;;;5.57;2.30;;;;;;;30.83;12.83;98650.81;5029056;28;20524;-79
2021/03/29 11:56:14;;;;;;;8.70;2.60;;;;;;;29.69;12.88;98633.97;5011656;28;20033;-79
2021/03/29 11:58:39;;;;;;;5.47;2.05;;;;;;;30.22;13.18;98643.88;4994961;28;20137;-80
2021/03/29 12:01:17;;;;;;;5.13;1.90;;;;;;;30.43;13.37;98641.22;5011232;28;20083;-79
2021/03/29 12:03:51;;;;;;;7.68;1.77;;;;;;;30.00;12.83;98620.88;4989256;28;20033;-79
2021/03/29 12:06:25;;;;;;;11.40;2.15;;;;;;;30.09;13.73;98630.75;5012738;28;20112;-79
2021/03/29 12:08:56;;;;;;;2.30;1.40;;;;;;;30.38;12.95;98624.34;4995747;28;20040;-80
2021/03/29 12:14:09;;;;;;;6.50;1.77;;;;;;;27.69;13.63;98603.81;5014219;28;20060;-79
2021/03/29 12:16:40;;;;;;;10.63;1.80;;;;;;;27.27;15.19;98604.06;5011531;28;20033;-80
2021/03/29 12:19:05;;;;;;;14.95;2.03;;;;;;;25.82;16.61;98601.03;4995014;28;20736;-79
2021/03/29 12:21:35;;;;;;;8.25;1.75;;;;;;;26.78;15.87;98607.81;5011278;28;20033;-80
2021/03/29 12:24:38;;;;;;;;;;;;;;;;;;;;;
2021/03/29 12:27:05;;;;;;;5.38;2.00;;;;;;;28.79;14.04;98592.59;5012648;28;20025;-81
2021/03/29 12:29:41;;;;;;;8.38;1.60;;;;;;;28.34;14.07;98593.38;5011150;28;20036;-81
2021/03/29 12:32:11;;;;;;;7.35;1.80;;;;;;;28.31;15.66;98607.50;4995925;28;20079;-80
2021/03/29 12:34:44;;;;;;;6.85;2.22;;;;;;;27.93;15.14;98609.22;5010815;28;20037;-79
2021/03/29 12:37:12;;;;;;;6.68;1.95;;;;;;;27.11;15.64;98609.56;5011111;28;20171;-79
2021/03/29 12:40:03;;;;;;;9.30;2.80;;;;;;;26.20;15.24;98596.94;4994687;28;20037;-79
2021/03/29 12:42:25;;;;;;;3.45;1.60;;;;;;;26.21;17.43;98609.63;5007412;28;20120;-80
2021/03/29 12:44:59;;;;;;;8.30;2.80;;;;;;;27.34;15.30;98605.09;5010404;28;20117;-78
2021/03/29 12:47:27;;;;;;;4.82;2.15;;;;;;;26.76;16.11;98607.16;4989641;28;20061;-79
2021/03/29 12:49:53;;;;;;;5.90;2.17;;;;;;;25.79;18.05;98601.38;5012501;28;20045;-79
2021/03/29 12:52:19;;;;;;;3.67;1.90;;;;;;;27.07;14.79;98593.63;5011263;28;20045;-79
2021/03/29 12:54:50;;;;;;;3.72;2.22;;;;;;;27.58;14.00;98579.44;4995422;28;20118;-80
2021/03/29 12:57:26;;;;;;;3.00;2.00;;;;;;;27.59;13.95;98580.31;5012053;28;20041;-81
2021/03/29 12:59:51;;;;;;;9.90;2.85;;;;;;;27.20;14.66;98582.94;5010497;28;20179;-79
2021/03/29 13:02:17;;;;;;;8.00;3.33;;;;;;;27.12;16.01;98585.69;5028148;28;20104;-79
2021/03/29 13:04:44;;;;;;;10.43;2.42;;;;;;;25.80;16.17;98584.78;5010904;28;20938;-79
2021/03/29 13:07:28;;;;;;;8.13;2.00;;;;;;;25.30;15.29;98581.91;4994213;28;20095;-79
2021/03/29 13:10:05;;;;;;;4.82;1.70;;;;;;;25.27;15.15;98579.50;4996119;28;20029;-79
2021/03/29 13:12:33;;;;;;;10.48;2.42;;;;;;;25.66;16.16;98574.41;4995705;28;20091;-79
2021/03/29 13:15:13;;;;;;;7.95;3.15;;;;;;;25.51;16.27;98575.19;4993927;28;20061;-78
2021/03/29 13:17:40;;;;;;;6.38;3.50;;;;;;;26.55;15.19;98571.94;5010608;28;20082;-79
2021/03/29 13:20:11;;;;;;;20.05;2.75;;;;;;;26.24;15.64;98577.19;5010277;28;20575;-79
2021/03/29 13:22:44;;;;;;;16.42;4.38;;;;;;;25.80;15.77;98572.94;5010254;28;20486;-79
2021/03/29 13:25:10;;;;;;;24.60;7.25;;;;;;;26.24;15.81;98574.47;5010504;28;20032;-79
2021/03/29 13:27:36;;;;;;;6.05;3.72;;;;;;;25.13;16.07;98569.13;4995063;28;20036;-79
2021/03/29 13:30:07;;;;;;;6.90;2.88;;;;;;;25.04;16.38;98564.59;5012802;28;20048;-78
2021/03/29 13:32:33;;;;;;;10.85;2.88;;;;;;;25.16;16.27;98570.69;5012697;28;20032;-79
2021/03/29 13:34:59;;;;;;;7.82;3.33;;;;;;;24.68;17.32;98566.53;5012929;28;20034;-79
2021/03/29 13:37:25;;;;;;;9.75;3.20;;;;;;;24.32;17.95;98566.72;4996221;28;20044;-79
2021/03/29 13:39:54;;;;;;;19.38;4.18;;;;;;;24.23;17.62;98566.66;4996753;28;20029;-80